createdAt,value
2023-04-21T00:00:39.302Z,10.56
2023-04-21T00:03:23.632Z,10.53
2023-04-21T00:06:04.858Z,10.52
2023-04-21T00:08:43.641Z,10.49
2023-04-21T00:11:23.640Z,10.46
2023-04-21T00:14:03.175Z,10.42
2023-04-21T00:16:39.216Z,10.39
2023-04-21T00:19:13.750Z,10.28
2023-04-21T00:21:43.174Z,10.28
2023-04-21T00:24:33.552Z,10.28
2023-04-21T00:27:12.261Z,10.28
2023-04-21T00:29:55.784Z,10.27
2023-04-21T00:32:40.268Z,10.28
2023-04-21T00:35:25.985Z,10.26
2023-04-21T00:37:56.669Z,10.23
2023-04-21T00:40:41.734Z,10.19
2023-04-21T00:43:14.071Z,10.15
2023-04-21T00:45:58.817Z,10.13
2023-04-21T00:48:30.881Z,10.12
2023-04-21T00:51:10.792Z,10.10
2023-04-21T00:53:51.280Z,10.09
2023-04-21T00:56:37.244Z,10.07
2023-04-21T00:59:14.822Z,10.05
2023-04-21T01:01:58.294Z,10.04
2023-04-21T01:04:41.207Z,10.03
2023-04-21T01:07:20.036Z,10.00
2023-04-21T01:10:08.788Z,9.96
2023-04-21T01:12:53.720Z,9.92
2023-04-21T01:15:42.833Z,9.89
2023-04-21T01:18:21.906Z,9.90
2023-04-21T01:21:10.515Z,9.89
2023-04-21T01:23:51.877Z,9.89
2023-04-21T01:26:36.261Z,9.89
2023-04-21T01:29:11.447Z,9.84
2023-04-21T01:32:00.235Z,9.85
2023-04-21T01:34:39.976Z,9.80
2023-04-21T01:37:27.953Z,9.77
2023-04-21T01:40:13.069Z,9.74
2023-04-21T01:42:46.752Z,9.72
2023-04-21T01:45:28.230Z,9.73
2023-04-21T01:48:07.501Z,9.74
2023-04-21T01:50:41.889Z,9.75
2023-04-21T01:53:25.986Z,9.76
2023-04-21T01:56:01.320Z,9.76
2023-04-21T01:58:43.427Z,9.73
2023-04-21T02:01:17.634Z,9.70
2023-04-21T02:04:01.208Z,9.67
2023-04-21T02:06:39.375Z,9.63
2023-04-21T02:09:11.388Z,9.62
2023-04-21T02:11:47.384Z,9.59
2023-04-21T02:14:19.746Z,9.59
2023-04-21T02:16:54.158Z,9.59
2023-04-21T02:19:37.602Z,9.57
2023-04-21T02:22:14.308Z,9.54
2023-04-21T02:24:56.639Z,9.51
2023-04-21T02:30:18.578Z,9.42
2023-04-21T02:32:58.036Z,9.39
2023-04-21T02:35:33.907Z,9.36
2023-04-21T02:38:08.506Z,9.36
2023-04-21T02:40:43.632Z,9.37
2023-04-21T02:43:30.188Z,9.37
2023-04-21T02:46:14.586Z,9.36
2023-04-21T02:49:22.060Z,9.34
2023-04-21T02:52:07.165Z,9.32
2023-04-21T02:54:42.786Z,9.30
2023-04-21T02:57:20.152Z,9.28
2023-04-21T02:59:54.589Z,9.24
2023-04-21T03:02:26.933Z,9.21
2023-04-21T03:05:01.894Z,9.16
2023-04-21T03:07:38.395Z,9.13
2023-04-21T03:10:19.872Z,9.09
2023-04-21T03:12:53.566Z,9.05
2023-04-21T03:15:37.197Z,9.02
2023-04-21T03:18:36.004Z,8.99
2023-04-21T03:21:08.903Z,8.96
2023-04-21T03:23:47.305Z,8.91
2023-04-21T03:26:32.721Z,8.86
2023-04-21T03:29:16.117Z,8.82
2023-04-21T03:31:50.762Z,8.79
2023-04-21T03:34:27.541Z,8.79
2023-04-21T03:37:17.874Z,8.79
2023-04-21T03:40:12.370Z,8.72
2023-04-21T03:43:00.512Z,8.74
2023-04-21T03:45:52.363Z,8.77
2023-04-21T03:48:42.061Z,8.79
2023-04-21T03:51:43.498Z,8.79
2023-04-21T03:54:24.384Z,8.80
2023-04-21T03:57:07.726Z,8.80
2023-04-21T03:59:51.257Z,8.79
2023-04-21T04:02:55.399Z,8.77
2023-04-21T04:05:46.038Z,8.75
2023-04-21T04:08:40.731Z,8.75
2023-04-21T04:11:28.123Z,8.77
2023-04-21T04:14:15.494Z,8.82
2023-04-21T04:17:08.543Z,8.86
2023-04-21T04:20:09.323Z,8.88
2023-04-21T04:22:56.743Z,8.91
2023-04-21T04:25:40.194Z,8.97
2023-04-21T04:28:10.270Z,9.02
2023-04-21T04:30:51.757Z,9.07
2023-04-21T04:33:33.411Z,9.13
2023-04-21T04:36:31.933Z,9.20
2023-04-21T04:39:24.774Z,9.17
2023-04-21T04:42:12.051Z,9.20
2023-04-21T04:44:55.301Z,9.26
2023-04-21T04:47:42.605Z,9.33
2023-04-21T04:50:24.244Z,9.45
2023-04-21T04:53:17.770Z,9.58
2023-04-21T04:56:07.368Z,9.74
2023-04-21T05:01:51.385Z,10.06
2023-04-21T05:04:37.207Z,10.19
2023-04-21T05:07:12.226Z,10.31
2023-04-21T05:10:00.946Z,10.42
2023-04-21T05:12:39.542Z,10.51
2023-04-21T05:15:14.652Z,10.58
2023-04-21T05:17:57.290Z,10.66
2023-04-21T05:20:46.462Z,10.83
2023-04-21T05:23:26.708Z,11.04
2023-04-21T05:26:11.399Z,11.18
2023-04-21T05:28:54.565Z,11.34
2023-04-21T05:31:41.187Z,11.53
2023-04-21T05:34:32.337Z,11.76
2023-04-21T05:37:08.206Z,11.97
2023-04-21T05:40:01.503Z,12.08
2023-04-21T05:42:49.280Z,12.17
2023-04-21T05:45:31.156Z,12.36
2023-04-21T05:48:13.356Z,12.47
2023-04-21T05:50:59.801Z,12.62
2023-04-21T05:53:38.374Z,12.95
2023-04-21T05:56:28.554Z,13.17
2023-04-21T05:59:21.441Z,13.44
2023-04-21T06:02:01.897Z,13.77
2023-04-21T06:04:38.195Z,14.09
2023-04-21T06:07:45.649Z,14.51
2023-04-21T06:10:26.719Z,14.99
2023-04-21T06:13:10.052Z,15.40
2023-04-21T06:15:56.374Z,15.84
2023-04-21T06:18:31.287Z,16.20
2023-04-21T06:21:18.245Z,16.50
2023-04-21T06:23:52.512Z,16.83
2023-04-21T06:26:46.079Z,17.07
2023-04-21T06:29:32.583Z,17.34
2023-04-21T06:32:08.800Z,17.49
2023-04-21T06:34:53.793Z,17.70
2023-04-21T06:37:30.446Z,18.00
2023-04-21T06:40:33.600Z,18.25
2023-04-21T06:43:16.104Z,18.44
2023-04-21T06:46:11.400Z,18.49
2023-04-21T06:48:46.563Z,18.56
2023-04-21T06:51:37.561Z,18.60
2023-04-21T06:54:10.981Z,18.67
2023-04-21T06:56:45.550Z,18.71
2023-04-21T06:59:35.421Z,18.85
2023-04-21T07:02:15.922Z,18.90
2023-04-21T07:04:47.173Z,19.00
2023-04-21T07:07:28.886Z,19.12
2023-04-21T07:10:06.175Z,19.35
2023-04-21T07:12:36.154Z,19.65
2023-04-21T07:15:12.981Z,19.98
2023-04-21T07:17:45.690Z,20.23
2023-04-21T07:20:14.943Z,20.49
2023-04-21T07:22:53.186Z,20.71
2023-04-21T07:25:33.324Z,20.88
2023-04-21T07:28:15.909Z,20.98
2023-04-21T07:30:49.968Z,21.10
2023-04-21T07:33:23.655Z,21.15
2023-04-21T07:35:52.448Z,21.19
2023-04-21T07:38:28.558Z,21.21
2023-04-21T07:41:10.167Z,21.33
2023-04-21T07:43:42.678Z,21.48
2023-04-21T07:46:24.478Z,21.62
2023-04-21T07:49:09.852Z,21.85
2023-04-21T07:51:51.357Z,21.98
2023-04-21T07:54:32.285Z,22.09
2023-04-21T07:57:13.247Z,22.25
2023-04-21T07:59:57.390Z,22.49
2023-04-21T08:02:34.901Z,22.53
2023-04-21T08:05:09.493Z,22.63
2023-04-21T08:07:53.609Z,22.89
2023-04-21T08:10:27.346Z,23.24
2023-04-21T08:13:03.188Z,23.52
2023-04-21T08:15:51.099Z,23.68
2023-04-21T08:18:29.176Z,23.87
2023-04-21T08:21:20.400Z,23.74
2023-04-21T08:24:12.784Z,23.83
2023-04-21T08:26:58.826Z,23.92
2023-04-21T08:29:55.697Z,24.17
2023-04-21T08:32:51.200Z,24.33
2023-04-21T08:35:29.795Z,24.32
2023-04-21T08:38:07.139Z,24.27
2023-04-21T08:40:55.468Z,24.46
2023-04-21T08:43:36.041Z,24.83
2023-04-21T08:46:09.005Z,25.14
2023-04-21T08:48:40.694Z,25.43
2023-04-21T08:51:22.929Z,25.69
2023-04-21T08:54:08.202Z,25.93
2023-04-21T08:57:04.559Z,25.83
2023-04-21T08:59:52.664Z,25.71
2023-04-21T09:02:37.421Z,25.94
2023-04-21T09:05:09.437Z,26.02
2023-04-21T09:07:42.000Z,26.26
2023-04-21T09:10:14.653Z,26.46
2023-04-21T09:12:58.177Z,26.64
2023-04-21T09:15:39.871Z,26.80
2023-04-21T09:18:20.978Z,26.91
2023-04-21T09:21:07.725Z,27.01
2023-04-21T09:23:58.485Z,27.09
2023-04-21T09:26:46.319Z,27.13
2023-04-21T09:29:33.719Z,27.31
2023-04-21T09:32:11.799Z,27.38
2023-04-21T09:34:55.387Z,27.61
2023-04-21T09:37:44.245Z,27.43
2023-04-21T09:40:54.026Z,27.14
2023-04-21T09:43:35.012Z,27.17
2023-04-21T09:46:14.775Z,27.30
2023-04-21T09:49:01.953Z,27.20
2023-04-21T09:52:05.772Z,27.26
2023-04-21T09:54:37.149Z,27.56
2023-04-21T09:57:10.883Z,27.61
2023-04-21T09:59:55.900Z,27.51
2023-04-21T10:02:48.267Z,27.40
2023-04-21T10:05:31.577Z,27.33
2023-04-21T10:08:06.616Z,27.16
2023-04-21T10:10:38.722Z,27.25
2023-04-21T10:13:18.792Z,27.12
2023-04-21T10:16:04.354Z,26.71
2023-04-21T10:18:53.964Z,26.36
2023-04-21T10:21:30.143Z,26.37
2023-04-21T10:24:06.750Z,26.45
2023-04-21T10:26:38.454Z,26.08
2023-04-21T10:29:16.027Z,25.41
2023-04-21T10:31:47.746Z,24.84
2023-04-21T10:34:19.082Z,24.35
2023-04-21T10:37:12.483Z,24.18
2023-04-21T10:40:10.409Z,24.13
2023-04-21T10:42:44.583Z,23.71
2023-04-21T10:45:14.012Z,23.39
2023-04-21T10:47:52.513Z,23.06
2023-04-21T10:50:42.035Z,22.74
2023-04-21T10:53:26.360Z,22.50
2023-04-21T10:55:55.997Z,22.35
2023-04-21T10:58:29.454Z,22.01
2023-04-21T11:01:03.100Z,21.58
2023-04-21T11:03:36.196Z,21.21
2023-04-21T11:06:17.770Z,20.87
2023-04-21T11:08:58.575Z,20.62
2023-04-21T11:11:42.936Z,20.54
2023-04-21T11:14:25.507Z,20.37
2023-04-21T11:16:58.194Z,20.18
2023-04-21T11:19:27.770Z,20.11
2023-04-21T11:21:55.974Z,20.10
2023-04-21T11:24:24.696Z,20.02
2023-04-21T11:27:12.181Z,19.97
2023-04-21T11:29:45.887Z,19.91
2023-04-21T11:32:16.362Z,19.90
2023-04-21T11:34:46.832Z,19.82
2023-04-21T11:37:27.300Z,19.73
2023-04-21T11:40:00.708Z,19.62
2023-04-21T11:42:30.156Z,19.40
2023-04-21T11:45:00.896Z,19.31
2023-04-21T11:47:29.306Z,19.25
2023-04-21T11:50:01.903Z,19.16
2023-04-21T11:52:39.156Z,19.11
2023-04-21T11:55:18.600Z,19.07
2023-04-21T11:57:53.402Z,19.07
2023-04-21T12:00:24.527Z,19.03
2023-04-21T12:03:00.762Z,19.05
2023-04-21T12:05:39.340Z,19.09
2023-04-21T12:08:18.212Z,19.04
2023-04-21T12:10:59.246Z,18.98
2023-04-21T12:13:38.580Z,19.01
2023-04-21T12:16:33.844Z,19.02
2023-04-21T12:19:07.706Z,18.95
2023-04-21T12:21:39.836Z,18.86
2023-04-21T12:24:16.749Z,18.85
2023-04-21T12:26:54.651Z,18.84
2023-04-21T12:29:35.554Z,18.84
2023-04-21T12:32:12.866Z,18.85
2023-04-21T12:34:50.794Z,18.85
2023-04-21T12:37:20.211Z,18.87
2023-04-21T12:39:50.897Z,18.96
2023-04-21T12:42:23.486Z,19.00
2023-04-21T12:44:57.392Z,18.92
2023-04-21T12:47:32.511Z,18.95
2023-04-21T12:50:10.288Z,19.05
2023-04-21T12:52:39.826Z,19.13
2023-04-21T12:55:14.739Z,19.17
2023-04-21T12:57:48.194Z,19.12
2023-04-21T13:00:24.392Z,19.09
2023-04-21T13:02:59.973Z,19.07
2023-04-21T13:05:38.820Z,18.94
2023-04-21T13:08:08.018Z,18.89
2023-04-21T13:10:45.776Z,18.89
2023-04-21T13:13:14.857Z,18.88
2023-04-21T13:15:51.884Z,18.89
2023-04-21T13:18:20.793Z,18.91
2023-04-21T13:20:53.841Z,18.93
2023-04-21T13:23:28.404Z,18.85
2023-04-21T13:26:12.096Z,18.82
2023-04-21T13:28:44.499Z,18.78
2023-04-21T13:31:24.264Z,18.71
2023-04-21T13:34:04.953Z,18.67
2023-04-21T13:36:45.377Z,18.73
2023-04-21T13:39:24.732Z,18.77
2023-04-21T13:42:02.513Z,18.80
2023-04-21T13:44:37.925Z,18.87
2023-04-21T13:47:11.365Z,18.93
2023-04-21T13:49:50.213Z,18.94
2023-04-21T13:52:27.934Z,18.93
2023-04-21T13:55:17.775Z,18.93
2023-04-21T13:57:57.518Z,18.96
2023-04-21T14:00:36.045Z,18.97
2023-04-21T14:03:14.022Z,18.98
2023-04-21T14:05:43.760Z,19.03
2023-04-21T14:08:20.861Z,19.06
2023-04-21T14:10:51.873Z,19.07
2023-04-21T14:13:36.345Z,19.02
2023-04-21T14:16:19.721Z,18.95
2023-04-21T14:19:03.927Z,18.90
2023-04-21T14:22:22.810Z,18.87
2023-04-21T14:24:55.564Z,18.89
2023-04-21T14:27:57.544Z,18.88
2023-04-21T14:30:42.832Z,18.89
2023-04-21T14:33:30.747Z,18.75
2023-04-21T14:36:12.467Z,18.68
2023-04-21T14:38:53.453Z,18.70
2023-04-21T14:41:38.066Z,18.73
2023-04-21T14:44:23.414Z,18.74
2023-04-21T14:47:09.945Z,18.68
2023-04-21T14:49:55.245Z,18.68
2023-04-21T14:52:40.298Z,18.72
2023-04-21T14:55:24.165Z,18.67
2023-04-21T14:58:05.695Z,18.67
2023-04-21T15:00:50.175Z,18.72
2023-04-21T15:03:20.209Z,18.75
2023-04-21T15:05:55.777Z,18.74
2023-04-21T15:08:40.648Z,18.71
2023-04-21T15:11:13.044Z,18.68
2023-04-21T15:13:59.972Z,18.72
2023-04-21T15:16:36.266Z,18.67
2023-04-21T15:19:17.497Z,18.65
2023-04-21T15:22:25.272Z,18.60
2023-04-21T15:25:14.204Z,18.55
2023-04-21T15:28:14.163Z,18.55
2023-04-21T15:31:12.995Z,18.47
2023-04-21T15:34:08.148Z,18.45
2023-04-21T15:37:16.471Z,18.45
2023-04-21T15:39:57.303Z,18.47
2023-04-21T15:42:52.862Z,18.44
2023-04-21T15:45:44.784Z,18.40
2023-04-21T15:48:17.279Z,18.37
2023-04-21T15:51:04.192Z,18.38
2023-04-21T15:53:51.438Z,18.37
2023-04-21T16:00:10.436Z,18.27
2023-04-21T16:02:46.602Z,18.24
2023-04-21T16:05:33.898Z,18.26
2023-04-21T16:08:30.354Z,18.19
2023-04-21T16:11:10.657Z,18.20
2023-04-21T16:14:04.266Z,18.21
2023-04-21T16:16:52.790Z,18.17
2023-04-21T16:19:31.798Z,18.14
2023-04-21T16:22:06.856Z,18.13
2023-04-21T16:24:47.782Z,18.09
2023-04-21T16:27:33.764Z,18.05
2023-04-21T16:30:13.751Z,18.01
2023-04-21T16:33:07.056Z,17.96
2023-04-21T16:35:46.108Z,17.93
2023-04-21T16:38:46.822Z,17.88
2023-04-21T16:41:32.053Z,17.83
2023-04-21T16:44:08.897Z,17.77
2023-04-21T16:46:47.338Z,17.72
2023-04-21T16:49:21.138Z,17.68
2023-04-21T16:52:07.289Z,17.65
2023-04-21T16:54:46.295Z,17.61
2023-04-21T16:57:35.173Z,17.56
2023-04-21T17:00:23.127Z,17.49
2023-04-21T17:03:05.476Z,17.43
2023-04-21T17:05:43.475Z,17.38
2023-04-21T17:08:31.941Z,17.32
2023-04-21T17:11:18.246Z,17.23
2023-04-21T17:14:16.747Z,17.20
2023-04-21T17:16:47.916Z,17.11
2023-04-21T17:19:24.864Z,17.09
2023-04-21T17:21:59.013Z,17.04
2023-04-21T17:24:53.560Z,16.97
2023-04-21T17:27:27.001Z,16.89
2023-04-21T17:30:00.292Z,16.85
2023-04-21T17:32:41.956Z,16.79
2023-04-21T17:35:13.848Z,16.73
2023-04-21T17:37:45.816Z,16.67
2023-04-21T17:40:26.683Z,16.61
2023-04-21T17:43:03.887Z,16.56
2023-04-21T17:45:33.264Z,16.49
2023-04-21T17:48:03.718Z,16.43
2023-04-21T17:50:44.776Z,16.37
2023-04-21T17:53:31.584Z,16.31
2023-04-21T17:56:05.315Z,16.24
2023-04-21T17:58:42.998Z,16.18
2023-04-21T18:01:13.206Z,16.13
2023-04-21T18:03:45.164Z,16.08
2023-04-21T18:06:31.499Z,16.01
2023-04-21T18:09:04.193Z,15.96
2023-04-21T18:11:36.693Z,15.92
2023-04-21T18:14:16.390Z,15.84
2023-04-21T18:16:47.129Z,15.78
2023-04-21T18:19:17.982Z,15.72
2023-04-21T18:21:46.925Z,15.65
2023-04-21T18:24:23.724Z,15.57
2023-04-21T18:29:50.374Z,15.36
2023-04-21T18:32:27.856Z,15.16
2023-04-21T18:35:05.916Z,15.05
2023-04-21T18:37:40.101Z,14.97
2023-04-21T18:44:08.075Z,14.71
2023-04-21T18:46:42.606Z,14.64
2023-04-21T18:49:11.925Z,14.56
2023-04-21T18:51:45.090Z,14.49
2023-04-21T18:54:22.790Z,14.39
2023-04-21T18:57:02.715Z,14.29
2023-04-21T18:59:40.706Z,14.20
2023-04-21T19:02:18.349Z,14.12
2023-04-21T19:04:50.452Z,14.01
2023-04-21T19:07:23.620Z,13.94
2023-04-21T19:09:54.954Z,13.91
2023-04-21T19:12:28.726Z,13.87
2023-04-21T19:15:04.041Z,13.83
2023-04-21T19:17:33.272Z,13.79
2023-04-21T19:20:04.538Z,13.75
2023-04-21T19:22:42.348Z,13.71
2023-04-21T19:25:19.197Z,13.69
2023-04-21T19:27:57.536Z,13.67
2023-04-21T19:30:31.822Z,13.64
2023-04-21T19:33:11.718Z,13.61
2023-04-21T19:35:45.939Z,13.57
2023-04-21T19:38:24.169Z,13.54
2023-04-21T19:41:09.025Z,13.52
2023-04-21T19:43:53.880Z,13.50
2023-04-21T19:46:29.248Z,13.48
2023-04-21T19:49:15.161Z,13.46
2023-04-21T19:51:44.440Z,13.43
2023-04-21T19:54:27.164Z,13.40
2023-04-21T19:57:02.005Z,13.32
2023-04-21T19:59:51.011Z,13.27
2023-04-21T20:02:30.456Z,13.11
2023-04-21T20:05:04.455Z,13.09
2023-04-21T20:07:39.803Z,13.06
2023-04-21T20:10:19.135Z,13.00
2023-04-21T20:12:59.824Z,12.98
2023-04-21T20:15:29.060Z,12.94
2023-04-21T20:18:24.642Z,12.89
2023-04-21T20:20:58.460Z,12.83
2023-04-21T20:23:38.165Z,12.76
2023-04-21T20:26:13.648Z,12.66
2023-04-21T20:28:50.210Z,12.55
2023-04-21T20:31:28.989Z,12.44
2023-04-21T20:33:57.862Z,12.34
2023-04-21T20:36:35.982Z,12.24
2023-04-21T20:39:09.955Z,12.14
2023-04-21T20:41:45.716Z,12.05
2023-04-21T20:44:20.728Z,11.96
2023-04-21T20:47:01.583Z,11.89
2023-04-21T20:49:33.995Z,11.79
2023-04-21T20:52:08.002Z,11.71
2023-04-21T20:54:43.171Z,11.63
2023-04-21T20:57:18.349Z,11.56
2023-04-21T21:00:07.597Z,11.49
2023-04-21T21:02:42.124Z,11.40
2023-04-21T21:05:24.565Z,11.32
2023-04-21T21:07:58.688Z,11.26
2023-04-21T21:10:39.328Z,11.19
2023-04-21T21:13:19.676Z,11.12
2023-04-21T21:15:57.601Z,11.07
2023-04-21T21:18:34.190Z,11.01
2023-04-21T21:21:19.374Z,10.94
2023-04-21T21:23:51.235Z,10.87
2023-04-21T21:26:24.736Z,10.82
2023-04-21T21:29:07.068Z,10.77
2023-04-21T21:31:43.587Z,10.70
2023-04-21T21:34:20.465Z,10.62
2023-04-21T21:36:52.999Z,10.56
2023-04-21T21:39:23.455Z,10.51
2023-04-21T21:42:04.797Z,10.46
2023-04-21T21:44:42.351Z,10.41
2023-04-21T21:47:19.573Z,10.37
2023-04-21T21:49:50.613Z,10.34
2023-04-21T21:52:24.336Z,10.31
2023-04-21T21:54:56.524Z,10.27
2023-04-21T21:57:26.339Z,10.23
2023-04-21T22:00:00.112Z,10.10
2023-04-21T22:02:35.932Z,10.05
2023-04-21T22:05:06.069Z,10.02
2023-04-21T22:07:44.411Z,9.99
2023-04-21T22:10:13.759Z,9.94
2023-04-21T22:12:47.262Z,9.92
2023-04-21T22:15:21.840Z,9.89
2023-04-21T22:17:53.873Z,9.88
2023-04-21T22:20:22.987Z,9.86
2023-04-21T22:22:57.802Z,9.76
2023-04-21T22:25:31.864Z,9.72
2023-04-21T22:28:12.048Z,9.70
2023-04-21T22:30:44.813Z,9.66
2023-04-21T22:33:13.902Z,9.62
2023-04-21T22:35:47.039Z,9.58
2023-04-21T22:38:23.782Z,9.55
2023-04-21T22:40:54.033Z,9.52
2023-04-21T22:43:28.925Z,9.50
2023-04-21T22:46:00.490Z,9.47
2023-04-21T22:48:29.325Z,9.45
2023-04-21T22:51:11.384Z,9.42
2023-04-21T22:53:40.717Z,9.40
2023-04-21T22:56:13.404Z,9.37
2023-04-21T22:58:48.937Z,9.32
2023-04-21T23:01:21.486Z,9.21
2023-04-21T23:03:58.800Z,9.10
2023-04-21T23:06:28.090Z,9.05
2023-04-21T23:09:01.406Z,9.05
2023-04-21T23:11:41.189Z,9.07
2023-04-21T23:14:11.598Z,9.06
2023-04-21T23:16:48.860Z,9.07
2023-04-21T23:19:24.148Z,9.07
2023-04-21T23:21:59.147Z,9.05
2023-04-21T23:24:33.332Z,9.02
2023-04-21T23:27:11.172Z,8.99
2023-04-21T23:29:40.639Z,8.94
2023-04-21T23:32:19.237Z,8.90
2023-04-21T23:34:54.486Z,8.87
2023-04-21T23:37:24.279Z,8.85
2023-04-21T23:39:53.136Z,8.84
2023-04-21T23:42:25.723Z,8.80
2023-04-21T23:45:00.000Z,8.76
2023-04-21T23:47:35.606Z,8.71
2023-04-21T23:50:07.615Z,8.68
2023-04-21T23:52:44.861Z,8.66
2023-04-21T23:55:18.173Z,8.61
2023-04-21T23:57:47.306Z,8.55
